createdAt,value
2023-10-11T00:01:23.993Z,55.00
2023-10-11T00:04:03.371Z,55.10
2023-10-11T00:06:34.988Z,55.00
2023-10-11T00:09:13.834Z,55.10
2023-10-11T00:11:43.042Z,55.10
2023-10-11T00:14:13.457Z,55.10
2023-10-11T00:16:43.354Z,55.20
2023-10-11T00:19:17.267Z,55.20
2023-10-11T00:21:47.174Z,55.20
2023-10-11T00:24:18.728Z,55.20
2023-10-11T00:26:50.846Z,55.30
2023-10-11T00:29:19.777Z,55.30
2023-10-11T00:31:48.643Z,55.40
2023-10-11T00:34:20.127Z,55.40
2023-10-11T00:36:51.060Z,55.40
2023-10-11T00:39:20.183Z,55.40
2023-10-11T00:41:50.739Z,55.40
2023-10-11T00:44:22.238Z,55.40
2023-10-11T00:47:01.304Z,55.40
2023-10-11T00:49:38.287Z,55.40
2023-10-11T00:52:08.846Z,55.40
2023-10-11T00:54:44.341Z,55.30
2023-10-11T00:57:14.689Z,55.30
2023-10-11T00:59:44.412Z,55.20
2023-10-11T01:02:15.992Z,55.20
2023-10-11T01:04:46.283Z,55.10
2023-10-11T01:07:17.817Z,55.10
2023-10-11T01:09:46.661Z,55.10
2023-10-11T01:12:16.053Z,55.10
2023-10-11T01:14:59.284Z,55.20
2023-10-11T01:17:32.921Z,55.20
2023-10-11T01:20:08.028Z,55.20
2023-10-11T01:22:38.617Z,55.30
2023-10-11T01:25:08.590Z,55.40
2023-10-11T01:27:38.245Z,55.40
2023-10-11T01:30:11.111Z,55.40
2023-10-11T01:32:42.855Z,55.50
2023-10-11T01:35:14.784Z,55.40
2023-10-11T01:37:45.117Z,55.40
2023-10-11T01:40:21.971Z,55.40
2023-10-11T01:42:51.489Z,55.40
2023-10-11T01:45:24.407Z,55.30
2023-10-11T01:47:57.622Z,55.90
2023-10-11T01:50:26.937Z,55.20
2023-10-11T01:52:57.499Z,55.10
2023-10-11T01:55:26.195Z,55.10
2023-10-11T01:57:54.842Z,55.10
2023-10-11T02:00:28.996Z,55.00
2023-10-11T02:02:58.110Z,55.00
2023-10-11T02:05:27.805Z,54.90
2023-10-11T02:07:57.936Z,54.80
2023-10-11T02:10:28.044Z,55.00
2023-10-11T02:12:58.414Z,54.80
2023-10-11T02:15:29.910Z,54.80
2023-10-11T02:17:59.870Z,54.80
2023-10-11T02:20:29.306Z,54.80
2023-10-11T02:23:01.192Z,54.70
2023-10-11T02:25:30.398Z,54.70
2023-10-11T02:27:59.931Z,54.70
2023-10-11T02:30:28.781Z,54.70
2023-10-11T02:33:00.315Z,54.80
2023-10-11T02:35:29.342Z,54.80
2023-10-11T02:38:00.623Z,54.90
2023-10-11T02:40:31.349Z,55.00
2023-10-11T02:43:04.694Z,55.00
2023-10-11T02:45:35.233Z,55.00
2023-10-11T02:48:11.810Z,55.00
2023-10-11T02:50:42.720Z,55.00
2023-10-11T02:53:22.587Z,55.00
2023-10-11T02:56:00.238Z,55.00
2023-10-11T02:58:31.279Z,54.90
2023-10-11T03:01:17.078Z,54.90
2023-10-11T03:03:54.126Z,54.90
2023-10-11T03:06:28.694Z,54.80
2023-10-11T03:08:59.044Z,54.80
2023-10-11T03:11:31.287Z,54.70
2023-10-11T03:14:05.511Z,54.80
2023-10-11T03:16:34.753Z,54.80
2023-10-11T03:19:06.384Z,54.90
2023-10-11T03:21:36.257Z,54.90
2023-10-11T03:24:07.758Z,54.90
2023-10-11T03:26:39.743Z,54.90
2023-10-11T03:29:19.645Z,54.90
2023-10-11T03:31:48.884Z,54.90
2023-10-11T03:34:19.366Z,54.90
2023-10-11T03:36:52.347Z,54.90
2023-10-11T03:39:40.796Z,54.90
2023-10-11T03:42:15.948Z,54.90
2023-10-11T03:44:48.132Z,54.90
2023-10-11T03:47:25.155Z,54.90
2023-10-11T03:49:53.976Z,54.90
2023-10-11T03:52:25.288Z,54.80
2023-10-11T03:55:06.194Z,54.80
2023-10-11T03:57:38.263Z,54.70
2023-10-11T04:00:26.248Z,54.70
2023-10-11T04:02:58.723Z,54.70
2023-10-11T04:05:35.184Z,54.70
2023-10-11T04:08:06.526Z,54.80
2023-10-11T04:10:41.647Z,54.80
2023-10-11T04:13:15.741Z,54.70
2023-10-11T04:15:50.517Z,54.70
2023-10-11T04:18:34.438Z,54.60
2023-10-11T04:21:18.223Z,54.50
2023-10-11T04:23:47.876Z,54.50
2023-10-11T04:26:34.680Z,54.50
2023-10-11T04:29:07.990Z,54.50
2023-10-11T04:31:55.937Z,54.50
2023-10-11T04:34:24.959Z,54.50
2023-10-11T04:36:56.886Z,54.40
2023-10-11T04:39:35.822Z,54.50
2023-10-11T04:42:07.841Z,54.50
2023-10-11T04:44:44.163Z,54.60
2023-10-11T04:47:18.669Z,54.70
2023-10-11T04:49:49.788Z,54.60
2023-10-11T04:52:24.399Z,54.60
2023-10-11T04:54:56.805Z,54.50
2023-10-11T04:57:37.624Z,54.40
2023-10-11T05:00:10.349Z,54.40
2023-10-11T05:02:40.401Z,54.40
2023-10-11T05:05:14.228Z,54.40
2023-10-11T05:07:44.508Z,54.40
2023-10-11T05:10:31.468Z,54.40
2023-10-11T05:13:07.254Z,54.50
2023-10-11T05:15:44.530Z,54.50
2023-10-11T05:18:20.081Z,54.50
2023-10-11T05:21:01.683Z,54.60
2023-10-11T05:23:43.883Z,54.50
2023-10-11T05:26:38.309Z,54.50
2023-10-11T05:29:24.728Z,54.40
2023-10-11T05:32:19.724Z,54.40
2023-10-11T05:34:52.374Z,54.40
2023-10-11T05:37:50.645Z,54.30
2023-10-11T05:40:36.804Z,55.00
2023-10-11T05:43:23.304Z,54.20
2023-10-11T05:46:10.957Z,54.00
2023-10-11T05:48:57.168Z,54.00
2023-10-11T05:51:28.216Z,54.00
2023-10-11T05:53:57.528Z,54.00
2023-10-11T05:56:26.294Z,53.90
2023-10-11T05:58:56.425Z,53.90
2023-10-11T06:01:27.366Z,54.50
2023-10-11T06:03:57.470Z,53.80
2023-10-11T06:06:28.652Z,53.90
2023-10-11T06:08:58.550Z,54.10
2023-10-11T06:11:30.991Z,54.20
2023-10-11T06:14:05.655Z,54.20
2023-10-11T06:16:39.757Z,54.30
2023-10-11T06:19:26.057Z,54.30
2023-10-11T06:22:00.152Z,54.30
2023-10-11T06:24:36.740Z,54.20
2023-10-11T06:27:40.297Z,54.30
2023-10-11T06:30:11.413Z,54.20
2023-10-11T06:32:44.059Z,54.30
2023-10-11T06:35:24.651Z,54.20
2023-10-11T06:37:55.330Z,54.30
2023-10-11T06:40:40.476Z,54.30
2023-10-11T06:43:09.747Z,54.40
2023-10-11T06:45:41.465Z,54.50
2023-10-11T06:48:15.207Z,54.50
2023-10-11T06:50:44.073Z,54.60
2023-10-11T06:53:15.002Z,54.60
2023-10-11T06:55:49.324Z,54.70
2023-10-11T06:58:20.531Z,54.70
2023-10-11T07:00:49.742Z,54.70
2023-10-11T07:03:29.513Z,54.70
2023-10-11T07:06:01.184Z,54.70
2023-10-11T07:08:37.333Z,54.80
2023-10-11T07:11:17.615Z,54.90
2023-10-11T07:13:56.202Z,55.10
2023-10-11T07:16:28.992Z,55.30
2023-10-11T07:18:59.986Z,55.40
2023-10-11T07:21:50.030Z,55.80
2023-10-11T07:24:32.991Z,55.90
2023-10-11T07:27:09.968Z,56.00
2023-10-11T07:29:48.007Z,56.10
2023-10-11T07:32:20.489Z,56.20
2023-10-11T07:34:50.393Z,56.30
2023-10-11T07:37:27.378Z,56.60
2023-10-11T07:40:01.486Z,56.70
2023-10-11T07:42:38.586Z,56.80
2023-10-11T07:45:14.423Z,57.00
2023-10-11T07:47:47.268Z,57.00
2023-10-11T07:50:23.692Z,57.00
2023-10-11T07:52:53.541Z,57.00
2023-10-11T07:55:27.456Z,56.90
2023-10-11T07:58:01.315Z,56.80
2023-10-11T08:00:31.947Z,56.90
2023-10-11T08:03:06.044Z,56.90
2023-10-11T08:05:45.893Z,57.00
2023-10-11T08:08:15.708Z,57.00
2023-10-11T08:10:46.728Z,56.90
2023-10-11T08:13:25.193Z,57.20
2023-10-11T08:15:58.938Z,57.20
2023-10-11T08:18:28.636Z,57.20
2023-10-11T08:20:58.776Z,57.20
2023-10-11T08:23:30.808Z,57.30
2023-10-11T08:26:07.045Z,57.20
2023-10-11T08:28:37.485Z,57.30
2023-10-11T08:31:09.693Z,57.30
2023-10-11T08:33:39.142Z,57.30
2023-10-11T08:36:15.504Z,57.30
2023-10-11T08:38:45.599Z,57.50
2023-10-11T08:41:16.884Z,57.40
2023-10-11T08:43:45.849Z,57.40
2023-10-11T08:46:18.892Z,57.40
2023-10-11T08:48:51.280Z,57.40
2023-10-11T08:51:23.933Z,57.40
2023-10-11T08:53:56.310Z,57.30
2023-10-11T08:56:26.225Z,57.20
2023-10-11T08:58:55.557Z,57.20
2023-10-11T09:01:26.317Z,57.20
2023-10-11T09:04:08.148Z,57.20
2023-10-11T09:06:38.326Z,57.20
2023-10-11T09:09:07.154Z,57.20
2023-10-11T09:11:36.262Z,57.10
2023-10-11T09:14:12.754Z,56.90
2023-10-11T09:16:42.151Z,56.80
2023-10-11T09:19:15.241Z,56.90
2023-10-11T09:22:04.118Z,57.00
2023-10-11T09:24:43.382Z,56.90
2023-10-11T09:27:20.691Z,56.80
2023-10-11T09:29:56.359Z,56.70
2023-10-11T09:32:35.432Z,56.40
2023-10-11T09:35:25.213Z,56.00
2023-10-11T09:37:57.333Z,56.00
2023-10-11T09:40:32.229Z,56.20
2023-10-11T09:43:03.267Z,56.20
2023-10-11T09:45:43.342Z,56.00
2023-10-11T09:48:16.728Z,55.90
2023-10-11T09:50:46.425Z,55.80
2023-10-11T09:53:17.212Z,55.60
2023-10-11T09:55:56.812Z,55.30
2023-10-11T09:58:42.623Z,55.00
2023-10-11T10:01:22.324Z,54.70
2023-10-11T10:03:53.992Z,54.40
2023-10-11T10:06:23.872Z,54.40
2023-10-11T10:09:27.998Z,54.00
2023-10-11T10:12:22.833Z,53.20
2023-10-11T10:15:04.727Z,53.10
2023-10-11T10:17:33.958Z,53.40
2023-10-11T10:20:43.725Z,53.10
2023-10-11T10:23:31.010Z,52.70
2023-10-11T10:26:39.936Z,52.40
2023-10-11T10:29:18.732Z,52.50
2023-10-11T10:32:08.803Z,52.70
2023-10-11T10:34:43.449Z,52.40
2023-10-11T10:37:56.500Z,53.30
2023-10-11T10:40:28.473Z,52.40
2023-10-11T10:43:28.997Z,52.50
2023-10-11T10:46:01.020Z,52.50
2023-10-11T10:48:40.742Z,52.70
2023-10-11T10:51:09.382Z,52.60
2023-10-11T10:53:41.718Z,52.60
2023-10-11T10:56:22.020Z,52.30
2023-10-11T10:59:05.462Z,52.30
2023-10-11T11:01:35.390Z,52.60
2023-10-11T11:04:08.972Z,52.70
2023-10-11T11:06:40.305Z,53.30
2023-10-11T11:09:14.772Z,52.80
2023-10-11T11:11:43.234Z,52.90
2023-10-11T11:14:14.634Z,52.90
2023-10-11T11:16:45.776Z,52.90
2023-10-11T11:19:17.747Z,52.80
2023-10-11T11:21:46.907Z,52.90
2023-10-11T11:24:22.218Z,53.00
2023-10-11T11:26:50.205Z,53.00
2023-10-11T11:29:35.926Z,53.00
2023-10-11T11:32:16.052Z,52.80
2023-10-11T11:35:03.701Z,53.00
2023-10-11T11:37:32.315Z,52.90
2023-10-11T11:40:19.712Z,52.90
2023-10-11T11:42:49.092Z,53.00
2023-10-11T11:45:21.112Z,53.20
2023-10-11T11:47:57.809Z,53.30
2023-10-11T11:50:27.992Z,53.20
2023-10-11T11:52:58.783Z,53.20
2023-10-11T11:55:27.778Z,53.30
2023-10-11T11:57:55.645Z,53.10
2023-10-11T12:00:40.892Z,53.20
2023-10-11T12:03:10.465Z,53.20
2023-10-11T12:05:42.284Z,53.20
2023-10-11T12:08:19.929Z,53.30
2023-10-11T12:10:51.499Z,53.20
2023-10-11T12:13:28.234Z,53.20
2023-10-11T12:16:00.581Z,53.30
2023-10-11T12:18:34.512Z,53.10
2023-10-11T12:21:12.543Z,53.20
2023-10-11T12:23:48.406Z,53.20
2023-10-11T12:26:19.288Z,53.30
2023-10-11T12:28:48.952Z,53.30
2023-10-11T12:31:19.238Z,53.30
2023-10-11T12:33:48.752Z,53.30
2023-10-11T12:36:21.692Z,53.30
2023-10-11T12:38:50.998Z,53.20
2023-10-11T12:41:19.772Z,53.20
2023-10-11T12:43:50.663Z,53.30
2023-10-11T12:46:21.399Z,53.20
2023-10-11T12:48:57.300Z,53.50
2023-10-11T12:51:26.934Z,53.50
2023-10-11T12:53:57.238Z,53.40
2023-10-11T12:56:27.604Z,53.20
2023-10-11T12:58:58.299Z,53.30
2023-10-11T13:01:38.322Z,53.40
2023-10-11T13:04:11.001Z,53.30
2023-10-11T13:06:44.825Z,53.50
2023-10-11T13:09:16.585Z,53.50
2023-10-11T13:11:46.813Z,53.40
2023-10-11T13:14:20.137Z,53.40
2023-10-11T13:16:55.415Z,53.30
2023-10-11T13:19:26.114Z,53.20
2023-10-11T13:21:57.121Z,53.10
2023-10-11T13:24:27.744Z,53.00
2023-10-11T13:26:59.330Z,52.90
2023-10-11T13:29:29.155Z,53.00
2023-10-11T13:32:00.549Z,52.90
2023-10-11T13:34:30.965Z,52.90
2023-10-11T13:37:00.022Z,52.90
2023-10-11T13:39:30.595Z,52.80
2023-10-11T13:42:04.496Z,52.90
2023-10-11T13:44:34.211Z,52.80
2023-10-11T13:47:05.373Z,53.40
2023-10-11T13:49:38.108Z,52.60
2023-10-11T13:52:08.369Z,52.60
2023-10-11T13:54:43.837Z,52.60
2023-10-11T13:57:17.445Z,52.60
2023-10-11T13:59:48.792Z,52.50
2023-10-11T14:02:36.036Z,52.50
2023-10-11T14:05:18.604Z,52.30
2023-10-11T14:07:54.770Z,52.40
2023-10-11T14:10:29.423Z,52.20
2023-10-11T14:13:09.750Z,52.00
2023-10-11T14:15:39.433Z,52.00
2023-10-11T14:18:15.746Z,52.00
2023-10-11T14:20:50.722Z,51.80
2023-10-11T14:23:19.465Z,51.70
2023-10-11T14:25:48.298Z,51.50
2023-10-11T14:28:17.005Z,51.40
2023-10-11T14:30:47.815Z,51.30
2023-10-11T14:33:19.518Z,51.30
2023-10-11T14:35:49.086Z,51.10
2023-10-11T14:38:18.746Z,51.20
2023-10-11T14:40:49.798Z,51.10
2023-10-11T14:43:18.901Z,51.00
2023-10-11T14:45:49.614Z,50.80
2023-10-11T14:48:19.998Z,50.80
2023-10-11T14:50:48.713Z,50.40
2023-10-11T14:53:17.783Z,50.30
2023-10-11T14:55:46.553Z,49.90
2023-10-11T14:58:16.526Z,49.60
2023-10-11T15:00:47.629Z,49.60
2023-10-11T15:03:16.798Z,49.70
2023-10-11T15:05:47.012Z,49.20
2023-10-11T15:08:17.357Z,49.00
2023-10-11T15:10:50.078Z,48.90
2023-10-11T15:13:18.886Z,48.80
2023-10-11T15:15:47.922Z,49.10
2023-10-11T15:18:19.400Z,49.30
2023-10-11T15:20:49.630Z,49.00
2023-10-11T15:23:19.154Z,49.00
2023-10-11T15:25:47.876Z,49.00
2023-10-11T15:28:16.763Z,49.00
2023-10-11T15:30:45.783Z,49.10
2023-10-11T15:33:15.984Z,48.90
2023-10-11T15:35:48.584Z,48.80
2023-10-11T15:38:18.870Z,48.70
2023-10-11T15:41:00.662Z,48.40
2023-10-11T15:43:31.213Z,48.70
2023-10-11T15:46:00.058Z,48.80
2023-10-11T15:48:30.912Z,48.80
2023-10-11T15:51:10.234Z,48.90
2023-10-11T15:53:43.811Z,48.90
2023-10-11T15:56:16.313Z,48.70
2023-10-11T15:58:46.292Z,48.80
2023-10-11T16:01:16.032Z,48.80
2023-10-11T16:03:52.570Z,48.70
2023-10-11T16:06:26.099Z,48.60
2023-10-11T16:08:56.777Z,48.70
2023-10-11T16:11:25.778Z,48.60
2023-10-11T16:13:54.507Z,48.70
2023-10-11T16:16:23.284Z,48.60
2023-10-11T16:18:53.235Z,48.60
2023-10-11T16:21:25.141Z,48.80
2023-10-11T16:23:55.820Z,48.80
2023-10-11T16:26:24.569Z,49.00
2023-10-11T16:28:53.730Z,49.00
2023-10-11T16:31:22.992Z,49.10
2023-10-11T16:33:54.094Z,49.30
2023-10-11T16:36:23.084Z,49.40
2023-10-11T16:38:51.800Z,49.40
2023-10-11T16:41:23.227Z,49.40
2023-10-11T16:43:52.435Z,49.60
2023-10-11T16:46:30.851Z,49.70
2023-10-11T16:49:02.276Z,49.70
2023-10-11T16:51:31.244Z,49.70
2023-10-11T16:54:00.478Z,49.80
2023-10-11T16:56:33.653Z,49.80
2023-10-11T16:59:02.580Z,49.80
2023-10-11T17:01:31.558Z,49.80
2023-10-11T17:04:00.553Z,49.80
2023-10-11T17:06:29.441Z,49.80
2023-10-11T17:08:59.190Z,49.80
2023-10-11T17:11:31.255Z,49.80
2023-10-11T17:14:00.016Z,49.80
2023-10-11T17:16:29.168Z,49.90
2023-10-11T17:18:57.982Z,49.90
2023-10-11T17:21:26.833Z,49.90
2023-10-11T17:23:55.590Z,49.80
2023-10-11T17:26:25.583Z,49.80
2023-10-11T17:28:57.090Z,49.80
2023-10-11T17:31:27.968Z,49.70
2023-10-11T17:33:56.871Z,49.80
2023-10-11T17:36:27.639Z,49.80
2023-10-11T17:38:56.705Z,49.80
2023-10-11T17:41:26.423Z,49.80
2023-10-11T17:43:56.623Z,49.80
2023-10-11T17:46:26.360Z,49.80
2023-10-11T17:48:55.974Z,49.90
2023-10-11T17:51:28.962Z,49.80
2023-10-11T17:54:01.032Z,49.80
2023-10-11T17:56:29.823Z,49.80
2023-10-11T17:59:03.433Z,49.80
2023-10-11T18:01:32.290Z,49.80
2023-10-11T18:04:06.613Z,49.90
2023-10-11T18:06:36.848Z,49.90
2023-10-11T18:09:06.695Z,50.00
2023-10-11T18:11:35.489Z,50.00
2023-10-11T18:14:06.028Z,50.00
2023-10-11T18:16:34.798Z,50.70
2023-10-11T18:19:07.466Z,50.10
2023-10-11T18:21:36.375Z,50.10
2023-10-11T18:24:05.767Z,50.10
2023-10-11T18:26:34.778Z,50.10
2023-10-11T18:29:05.225Z,50.10
2023-10-11T18:31:34.280Z,50.20
2023-10-11T18:34:03.915Z,50.20
2023-10-11T18:36:32.814Z,50.20
2023-10-11T18:39:02.049Z,50.30
2023-10-11T18:41:31.157Z,50.50
2023-10-11T18:43:59.857Z,50.60
2023-10-11T18:46:30.328Z,50.70
2023-10-11T18:48:59.683Z,50.80
2023-10-11T18:51:29.630Z,50.70
2023-10-11T18:54:00.407Z,50.80
2023-10-11T18:56:29.220Z,50.90
2023-10-11T18:58:59.225Z,50.90
2023-10-11T19:01:29.657Z,51.00
2023-10-11T19:03:58.451Z,51.10
2023-10-11T19:06:28.344Z,51.10
2023-10-11T19:08:57.834Z,51.00
2023-10-11T19:11:29.372Z,51.00
2023-10-11T19:13:58.092Z,51.00
2023-10-11T19:16:27.852Z,51.10
2023-10-11T19:18:58.199Z,51.20
2023-10-11T19:21:27.155Z,51.30
2023-10-11T19:23:57.087Z,51.30
2023-10-11T19:26:26.450Z,51.40
2023-10-11T19:29:00.051Z,51.50
2023-10-11T19:31:29.861Z,51.50
2023-10-11T19:34:00.044Z,51.50
2023-10-11T19:36:28.942Z,51.60
2023-10-11T19:38:57.631Z,51.60
2023-10-11T19:41:26.471Z,51.60
2023-10-11T19:43:55.175Z,51.70
2023-10-11T19:46:24.116Z,51.70
2023-10-11T19:48:53.880Z,51.80
2023-10-11T19:51:24.091Z,51.80
2023-10-11T19:53:52.770Z,51.80
2023-10-11T19:56:21.897Z,51.80
2023-10-11T19:58:51.613Z,51.80
2023-10-11T20:01:22.755Z,51.80
2023-10-11T20:03:57.647Z,51.80
2023-10-11T20:06:28.101Z,51.80
2023-10-11T20:08:56.855Z,52.00
2023-10-11T20:11:25.718Z,51.90
2023-10-11T20:13:54.405Z,52.00
2023-10-11T20:16:23.102Z,52.00
2023-10-11T20:18:51.938Z,52.00
2023-10-11T20:21:21.642Z,52.00
2023-10-11T20:23:55.611Z,52.10
2023-10-11T20:26:25.975Z,52.30
2023-10-11T20:28:58.274Z,52.30
2023-10-11T20:31:27.443Z,52.30
2023-10-11T20:33:58.741Z,52.40
2023-10-11T20:36:28.313Z,52.40
2023-10-11T20:38:58.692Z,52.40
2023-10-11T20:41:27.324Z,52.40
2023-10-11T20:43:56.186Z,52.40
2023-10-11T20:46:25.259Z,52.30
2023-10-11T20:48:56.219Z,52.30
2023-10-11T20:51:25.583Z,52.30
2023-10-11T20:53:56.109Z,52.30
2023-10-11T20:56:29.202Z,52.30
2023-10-11T20:59:00.345Z,52.30
2023-10-11T21:01:29.413Z,52.30
2023-10-11T21:03:58.683Z,52.30
2023-10-11T21:06:27.673Z,52.40
2023-10-11T21:08:57.485Z,52.40
2023-10-11T21:11:29.043Z,52.40
2023-10-11T21:13:57.710Z,52.30
2023-10-11T21:16:26.566Z,52.30
2023-10-11T21:18:57.216Z,52.30
2023-10-11T21:21:29.587Z,52.30
2023-10-11T21:23:58.977Z,52.40
2023-10-11T21:26:32.213Z,52.30
2023-10-11T21:29:00.950Z,52.40
2023-10-11T21:31:30.891Z,52.30
2023-10-11T21:33:59.668Z,52.30
2023-10-11T21:36:28.452Z,52.30
2023-10-11T21:38:57.253Z,52.30
2023-10-11T21:41:26.014Z,52.30
2023-10-11T21:43:56.069Z,52.30
2023-10-11T21:46:25.820Z,52.30
2023-10-11T21:48:55.109Z,52.30
2023-10-11T21:51:26.068Z,52.30
2023-10-11T21:53:55.503Z,52.30
2023-10-11T21:56:24.203Z,52.30
2023-10-11T21:58:52.925Z,52.30
2023-10-11T22:01:25.995Z,52.20
2023-10-11T22:03:58.390Z,52.20
2023-10-11T22:06:27.711Z,52.20
2023-10-11T22:08:56.753Z,52.20
2023-10-11T22:11:28.267Z,52.10
2023-10-11T22:13:58.307Z,52.10
2023-10-11T22:16:28.432Z,52.10
2023-10-11T22:19:00.169Z,52.00
2023-10-11T22:21:29.191Z,52.00
2023-10-11T22:23:57.931Z,52.10
2023-10-11T22:26:27.635Z,52.00
2023-10-11T22:28:56.574Z,52.00
2023-10-11T22:31:25.669Z,51.90
2023-10-11T22:33:56.688Z,52.00
2023-10-11T22:36:27.999Z,51.90
2023-10-11T22:38:58.902Z,51.90
2023-10-11T22:41:28.000Z,51.90
2023-10-11T22:43:56.817Z,51.90
2023-10-11T22:46:26.208Z,51.80
2023-10-11T22:48:56.493Z,51.80
2023-10-11T22:51:28.683Z,51.80
2023-10-11T22:54:01.921Z,51.80
2023-10-11T22:56:32.306Z,51.80
2023-10-11T22:59:05.570Z,51.70
2023-10-11T23:01:38.413Z,51.70
2023-10-11T23:04:09.848Z,51.70
2023-10-11T23:06:38.684Z,51.60
2023-10-11T23:09:07.615Z,51.70
2023-10-11T23:11:37.781Z,51.60
2023-10-11T23:14:06.914Z,51.70
2023-10-11T23:16:37.101Z,51.50
2023-10-11T23:22:02.663Z,51.50
2023-10-11T23:24:34.714Z,51.40
2023-10-11T23:27:03.528Z,51.30
2023-10-11T23:29:35.126Z,51.30
2023-10-11T23:32:05.004Z,51.20
2023-10-11T23:34:34.726Z,51.10
2023-10-11T23:37:06.403Z,51.30
2023-10-11T23:39:35.402Z,51.20
2023-10-11T23:42:15.767Z,51.30
2023-10-11T23:44:45.792Z,51.30
2023-10-11T23:47:23.927Z,51.30
2023-10-11T23:49:57.107Z,51.20
2023-10-11T23:52:29.782Z,51.20
2023-10-11T23:55:07.454Z,51.20
2023-10-11T23:57:47.224Z,51.50
